Home > Products > Valid Products > MTR

000
SAUS43 KBIS 011754
MTRN60
METAR KN60 011752Z AUTO 14008KT 27/16 A2987 RMK AO1 SLP108 T02670156
10267 20150 56012





000
SAUS43 KBIS 011653
MTRN60
METAR KN60 011652Z AUTO 11007KT 26/14 A2989 RMK AO1 SLP112 T02560144





000
SAUS43 KBIS 011653
MTRN60
METAR KN60 011652Z AUTO 11007KT 26/14 A2989 RMK AO1 SLP112 T02560144





000
SAUS43 KBIS 011553
MTRN60
METAR KN60 011552Z AUTO 11007KT 24/14 A2989 RMK AO1 SLP116 T02440139





000
SAUS43 KBIS 011553
MTRN60
METAR KN60 011552Z AUTO 11007KT 24/14 A2989 RMK AO1 SLP116 T02440139





000
SAUS43 KBIS 011453
MTRN60
METAR KN60 011452Z AUTO 11004KT 23/15 A2991 RMK AO1 SLP119 T02280150
56009





000
SAUS43 KBIS 011354
MTRN60
METAR KN60 011352Z AUTO 10003KT 20/14 A2992 RMK AO1 SLP122 T02000144





000
SAUS43 KBIS 011354
MTRN60
METAR KN60 011352Z AUTO 10003KT 20/14 A2992 RMK AO1 SLP122 T02000144





000
SAUS43 KBIS 011253
MTRN60
METAR KN60 011252Z AUTO 08005KT 17/14 A2992 RMK AO1 SLP123 T01720144





000
SAUS43 KBIS 011253
MTRN60
METAR KN60 011252Z AUTO 08005KT 17/14 A2992 RMK AO1 SLP123 T01720144





000
SAUS43 KBIS 011154
MTRN60
METAR KN60 011152Z AUTO 06005KT 16/12 A2994 RMK AO1 SLP129 T01560122
10156 20128 58022





000
SAUS43 KBIS 011054
MTRN60
METAR KN60 011052Z AUTO 07004KT 14/12 A2996 RMK AO1 SLP137 T01390117





000
SAUS43 KBIS 011054
MTRN60
METAR KN60 011052Z AUTO 07004KT 14/12 A2996 RMK AO1 SLP137 T01390117





000
SAUS43 KBIS 010954
MTRN60
METAR KN60 010952Z AUTO 00000KT 13/12 A2999 RMK AO1 SLP148 T01280117





000
SAUS43 KBIS 010853
MTRN60
METAR KN60 010852Z AUTO 00000KT 14/13 A3000 RMK AO1 SLP152 T01440128
58009





000
SAUS43 KBIS 010853
MTRN60
METAR KN60 010852Z AUTO 00000KT 14/13 A3000 RMK AO1 SLP152 T01440128
58009





000
SAUS43 KBIS 010754
MTRN60
METAR KN60 010752Z AUTO 03005KT 15/13 A3002 RMK AO1 SLP157 T01500128





000
SAUS43 KBIS 010754
MTRN60
METAR KN60 010752Z AUTO 03005KT 15/13 A3002 RMK AO1 SLP157 T01500128





000
SAUS43 KBIS 010653
MTRN60
METAR KN60 010652Z AUTO 01003KT 14/13 A3003 RMK AO1 SLP165 T01440128





000
SAUS43 KBIS 010653
MTRN60
METAR KN60 010652Z AUTO 01003KT 14/13 A3003 RMK AO1 SLP165 T01440128





000
SAUS43 KBIS 010554
MTRN60
METAR KN60 010552Z AUTO 00000KT 15/12 A3003 RMK AO1 SLP163 T01500122
10278 20144 402890111 50003





000
SAUS43 KBIS 010454
MTRN60
METAR KN60 010452Z AUTO 00000KT 17/14 A3004 RMK AO1 SLP164 T01670139





000
SAUS43 KBIS 010354
MTRN60
METAR KN60 010352Z AUTO 18003KT 17/13 A3003 RMK AO1 SLP163 T01670133





000
SAUS43 KBIS 010253
MTRN60
METAR KN60 010252Z AUTO 00000KT 21/14 A3002 RMK AO1 SLP160 T02060144
56008





000
SAUS43 KBIS 010154
MTRN60
METAR KN60 010152Z AUTO 07003KT 23/14 A3002 RMK AO1 SLP160 T02330139





000
SAUS43 KBIS 010154
MTRN60
METAR KN60 010152Z AUTO 07003KT 23/14 A3002 RMK AO1 SLP160 T02330139





000
SAUS43 KBIS 010054
MTRN60
METAR KN60 010052Z AUTO 05004KT 26/14 A3003 RMK AO1 SLP163 T02610139





000
SAUS43 KBIS 312354
MTRN60
METAR KN60 312352Z AUTO 02006KT 28/11 A3005 RMK AO1 SLP168 T02780106
10289 20267 58015





000
SAUS43 KBIS 312253
MTRN60
METAR KN60 312252Z AUTO 34005KT 28/12 A3007 RMK AO1 SLP174 T02830117





000
SAUS43 KBIS 312154
MTRN60
METAR KN60 312152Z AUTO 34011KT 28/12 A3008 RMK AO1 SLP179 T02830122





000
SAUS43 KBIS 312154
MTRN60
METAR KN60 312152Z AUTO 34011KT 28/12 A3008 RMK AO1 SLP179 T02830122





000
SAUS43 KBIS 312053
MTRN60
METAR KN60 312052Z AUTO 29008G20KT 28/13 A3009 RMK AO1 SLP183
T02830128 56009





000
SAUS43 KBIS 311954
MTRN60
METAR KN60 311952Z AUTO 32010G18KT 28/12 A3010 RMK AO1 SLP187
T02780122





000
SAUS43 KBIS 311954
MTRN60
METAR KN60 311952Z AUTO 32010G18KT 28/12 A3010 RMK AO1 SLP187
T02780122





000
SAUS43 KBIS 311853
MTRN60
METAR KN60 311852Z AUTO 33010KT 27/13 A3011 RMK AO1 SLP192 T02670133





000
SAUS43 KBIS 311754
MTRN60
METAR KN60 311752Z AUTO 34009KT 27/13 A3012 RMK AO1 SLP195 T02670128
10267 20144 58005





000
SAUS43 KBIS 311653
MTRN60
METAR KN60 311652Z AUTO 31009KT 26/13 A3013 RMK AO1 SLP199 T02560133





000
SAUS43 KBIS 311554
MTRN60
METAR KN60 311552Z AUTO 29007KT 24/14 A3013 RMK AO1 SLP198 T02440139





000
SAUS43 KBIS 311453
MTRN60
METAR KN60 311452Z AUTO 23007KT 22/13 A3014 RMK AO1 SLP201 T02170133
58003





000
SAUS43 KBIS 311453
MTRN60
METAR KN60 311452Z AUTO 23007KT 22/13 A3014 RMK AO1 SLP201 T02170133
58003





000
SAUS43 KBIS 311354
MTRN60
METAR KN60 311352Z AUTO 00000KT 19/14 A3015 RMK AO1 SLP204 T01890139





000
SAUS43 KBIS 311254
MTRN60
METAR KN60 311252Z AUTO 00000KT 16/12 A3015 RMK AO1 SLP204 T01610122





000
SAUS43 KBIS 311154
MTRN60
METAR KN60 311152Z AUTO 00000KT 14/11 A3015 RMK AO1 SLP204 T01440111
10150 20111 57003





000
SAUS43 KBIS 311154
MTRN60
METAR KN60 311152Z AUTO 00000KT 14/11 A3015 RMK AO1 SLP204 T01440111
10150 20111 57003





000
SAUS43 KBIS 311053
MTRN60
METAR KN60 311052Z AUTO 00000KT 13/12 A3015 RMK AO1 SLP206 T01330117





000
SAUS43 KBIS 310954
MTRN60
METAR KN60 310952Z AUTO 00000KT 13/12 A3015 RMK AO1 SLP205 T01330117





000
SAUS43 KBIS 310854
MTRN60
METAR KN60 310852Z AUTO 25003KT 14/12 A3016 RMK AO1 SLP206 T01440117
51002





000
SAUS43 KBIS 310754
MTRN60
METAR KN60 310752Z AUTO 27004KT 13/11 A3016 RMK AO1 SLP207 T01330111





000
SAUS43 KBIS 310654
MTRN60
METAR KN60 310652Z AUTO 00000KT 14/10 A3016 RMK AO1 SLP208 T01390100





000
SAUS43 KBIS 310654
MTRN60
METAR KN60 310652Z AUTO 00000KT 14/10 A3016 RMK AO1 SLP208 T01390100





000
SAUS43 KBIS 310554
MTRN60
METAR KN60 310552Z AUTO 00000KT 14/11 A3015 RMK AO1 SLP206 T01390111
10256 20128 402720111 51006





000
SAUS43 KBIS 310453
MTRN60
METAR KN60 310452Z AUTO 33007KT 14/11 A3015 RMK AO1 SLP204 T01440111





000
SAUS43 KBIS 310453
MTRN60
METAR KN60 310452Z AUTO 33007KT 14/11 A3015 RMK AO1 SLP204 T01440111





000
SAUS43 KBIS 310354
MTRN60
METAR KN60 310352Z AUTO 33004KT 17/12 A3015 RMK AO1 SLP204 T01670122





000
SAUS43 KBIS 310253
MTRN60
METAR KN60 310252Z AUTO 01004KT 18/13 A3013 RMK AO1 SLP199 T01780128
53002





000
SAUS43 KBIS 310253
MTRN60
METAR KN60 310252Z AUTO 01004KT 18/13 A3013 RMK AO1 SLP199 T01780128
53002





000
SAUS43 KBIS 310154
MTRN60
METAR KN60 310152Z AUTO 35006KT 21/13 A3012 RMK AO1 SLP197 T02060133





000
SAUS43 KBIS 310154
MTRN60
METAR KN60 310152Z AUTO 35006KT 21/13 A3012 RMK AO1 SLP197 T02060133





000
SAUS43 KBIS 310053
MTRN60
METAR KN60 310052Z AUTO 34007KT 24/12 A3012 RMK AO1 SLP197 T02440117





000
SAUS43 KBIS 302354
MTRN60
METAR KN60 302352Z AUTO 32011KT 26/10 A3013 RMK AO1 SLP198 T02560100
10272 20244 56003





000
SAUS43 KBIS 302354
MTRN60
METAR KN60 302352Z AUTO 32011KT 26/10 A3013 RMK AO1 SLP198 T02560100
10272 20244 56003





000
SAUS43 KBIS 302253
MTRN60
METAR KN60 302252Z AUTO 33015G20KT 27/10 A3013 RMK AO1 SLP197
T02670100





000
SAUS43 KBIS 302253
MTRN60
METAR KN60 302252Z AUTO 33015G20KT 27/10 A3013 RMK AO1 SLP197
T02670100





000
SAUS43 KBIS 302154
MTRN60
METAR KN60 302152Z AUTO 32015G21KT 27/09 A3013 RMK AO1 SLP198
T02720094





000
SAUS43 KBIS 302054
MTRN60
METAR KN60 302052Z AUTO 31016KT 27/10 A3014 RMK AO1 SLP200 T02720100
56004





000
SAUS43 KBIS 302054
MTRN60
METAR KN60 302052Z AUTO 31016KT 27/10 A3014 RMK AO1 SLP200 T02720100
56004





000
SAUS43 KBIS 301954
MTRN60
METAR KN60 301952Z AUTO 31013KT 27/12 A3014 RMK AO1 SLP201 T02670117





000
SAUS43 KBIS 301854
MTRN60
METAR KN60 301852Z AUTO 32015G21KT 26/12 A3015 RMK AO1 SLP203
T02610117





000
SAUS43 KBIS 301854
MTRN60
METAR KN60 301852Z AUTO 32015G21KT 26/12 A3015 RMK AO1 SLP203
T02610117





000
SAUS43 KBIS 301754
MTRN60
METAR KN60 301752Z AUTO 31010G18KT 24/13 A3015 RMK AO1 SLP204
T02440128 10250 20111 52001





000
SAUS43 KBIS 301654
MTRN60
METAR KN60 301652Z AUTO 30014KT 23/12 A3015 RMK AO1 SLP205 T02330122





000
SAUS43 KBIS 301554
MTRN60
METAR KN60 301552Z AUTO 31012KT 23/13 A3015 RMK AO1 SLP204 T02280128





000
SAUS43 KBIS 301453
MTRN60
METAR KN60 301452Z AUTO 31007KT 21/13 A3015 RMK AO1 SLP205 T02110128
51010





000
SAUS43 KBIS 301453
MTRN60
METAR KN60 301452Z AUTO 31007KT 21/13 A3015 RMK AO1 SLP205 T02110128
51010





000
SAUS43 KBIS 301354
MTRN60
METAR KN60 301352Z AUTO 29005KT 17/13 A3014 RMK AO1 SLP202 T01720128





000
SAUS43 KBIS 301254
MTRN60
METAR KN60 301252Z AUTO 26004KT 12/11 A3013 RMK AO1 SLP200 T01220111





000
SAUS43 KBIS 301254
MTRN60
METAR KN60 301252Z AUTO 26004KT 12/11 A3013 RMK AO1 SLP200 T01220111





000
SAUS43 KBIS 301154
MTRN60
METAR KN60 301152Z AUTO 31004KT 12/10 A3011 RMK AO1 SLP194 T01170100
10161 20111 50009





000
SAUS43 KBIS 301154
MTRN60
METAR KN60 301152Z AUTO 31004KT 12/10 A3011 RMK AO1 SLP194 T01170100
10161 20111 50009





000
SAUS43 KBIS 301053
MTRN60
METAR KN60 301052Z AUTO 33005KT 12/10 A3012 RMK AO1 SLP194 T01170100





000
SAUS43 KBIS 301053
MTRN60
METAR KN60 301052Z AUTO 33005KT 12/10 A3012 RMK AO1 SLP194 T01170100





000
SAUS43 KBIS 300954
MTRN60
METAR KN60 300952Z AUTO 30007KT 12/10 A3011 RMK AO1 SLP191 T01220100





000
SAUS43 KBIS 300854
MTRN60
METAR KN60 300852Z AUTO 00000KT 13/11 A3008 RMK AO1 SLP182 T01330106
53004





000
SAUS43 KBIS 300753
MTRN60
METAR KN60 300752Z AUTO 27007KT 14/11 A3008 RMK AO1 SLP179 T01440111





000
SAUS43 KBIS 300653
MTRN60
METAR KN60 300652Z AUTO 23003KT 13/11 A3007 RMK AO1 SLP180 T01330106





000
SAUS43 KBIS 300653
MTRN60
METAR KN60 300652Z AUTO 23003KT 13/11 A3007 RMK AO1 SLP180 T01330106





000
SAUS43 KBIS 300553
MTRN60
METAR KN60 300552Z AUTO 29007KT 16/10 A3007 RMK AO1 SLP178 T01610100
10256 20150 402670139 50006





000
SAUS43 KBIS 300553
MTRN60
METAR KN60 300552Z AUTO 29007KT 16/10 A3007 RMK AO1 SLP178 T01610100
10256 20150 402670139 50006





000
SAUS43 KBIS 300454 COR
MTRN60
METAR KN60 300452Z AUTO 29006KT 16/11 A3007 RMK AO1 SLP179 T01560106





000
SAUS43 KBIS 300354
MTRN60
METAR KN60 300352Z AUTO 30008KT 16/11 A3007 RMK AO1 SLP179 T01610111





000
SAUS43 KBIS 300254
MTRN60
METAR KN60 300252Z AUTO 30008KT 17/13 A3005 RMK AO1 SLP173 T01670128
53012





000
SAUS43 KBIS 300154
MTRN60
METAR KN60 300152Z AUTO 30008KT 20/13 A3003 RMK AO1 SLP164 T02000133





000
SAUS43 KBIS 300053
MTRN60
METAR KN60 300052Z AUTO 31009KT 23/12 A3001 RMK AO1 SLP158 T02330122





000
SAUS43 KBIS 292354
MTRN60
METAR KN60 292352Z AUTO 29011G22KT 26/11 A3001 RMK AO1 SLP157
T02560106 10267 20228 58003





000
SAUS43 KBIS 292254
MTRN60
METAR KN60 292252Z AUTO 28014G20KT 26/09 A3002 RMK AO1 SLP158
T02610089





000
SAUS43 KBIS 292154
MTRN60
METAR KN60 292152Z AUTO 28014G24KT 26/11 A3002 RMK AO1 PK WND
28029/2102 SLP160 T02610106





000
SAUS43 KBIS 292054
MTRN60
METAR KN60 292052Z AUTO 29017G26KT 26/11 A3002 RMK AO1 PK WND
29030/2002 SLP160 T02560111 51004





000
SAUS43 KBIS 292054
MTRN60
METAR KN60 292052Z AUTO 29017G26KT 26/11 A3002 RMK AO1 PK WND
29030/2002 SLP160 T02560111 51004





000
SAUS43 KBIS 291954
MTRN60
METAR KN60 291952Z AUTO 29016G29KT 25/11 A3002 RMK AO1 PK WND
29032/1921 SLP159 T02500111





000
SAUS43 KBIS 291853
MTRN60
METAR KN60 291852Z AUTO 28018G25KT 24/12 A3001 RMK AO1 PK WND
30028/1823 SLP159 T02390122





000
SAUS43 KBIS 291853
MTRN60
METAR KN60 291852Z AUTO 28018G25KT 24/12 A3001 RMK AO1 PK WND
30028/1823 SLP159 T02390122





    US Dept of Commerce
    National Oceanic and Atmospheric Administration
    National Weather Service
    1325 East West Highway
    Silver Spring, MD 20910
    Page Author: NWS Internet Services Team
Disclaimer
Information Quality
Credits
Glossary
Privacy Policy
Freedom of Information Act (FOIA)
About Us
Career Opportunities